sensor_id;sensor_type;location;lat;lon;timestamp;temperature;humidity
20291;DHT22;10304;51.074;13.754;2023-05-18T00:00:53;13.70;1.00
20291;DHT22;10304;51.074;13.754;2023-05-18T00:03:21;13.70;1.00
20291;DHT22;10304;51.074;13.754;2023-05-18T00:05:48;13.60;1.00
20291;DHT22;10304;51.074;13.754;2023-05-18T00:08:15;13.60;1.00
20291;DHT22;10304;51.074;13.754;2023-05-18T00:10:42;13.50;1.00
20291;DHT22;10304;51.074;13.754;2023-05-18T00:13:09;13.40;1.00
20291;DHT22;10304;51.074;13.754;2023-05-18T00:15:36;13.30;1.00
20291;DHT22;10304;51.074;13.754;2023-05-18T00:18:03;13.20;1.00
20291;DHT22;10304;51.074;13.754;2023-05-18T00:20:30;13.20;1.00
20291;DHT22;10304;51.074;13.754;2023-05-18T00:22:57;13.20;1.00
20291;DHT22;10304;51.074;13.754;2023-05-18T00:25:23;13.00;1.00
20291;DHT22;10304;51.074;13.754;2023-05-18T00:27:50;13.00;1.00
20291;DHT22;10304;51.074;13.754;2023-05-18T00:30:17;12.90;1.00
20291;DHT22;10304;51.074;13.754;2023-05-18T00:32:44;12.90;1.00
20291;DHT22;10304;51.074;13.754;2023-05-18T00:35:11;12.90;1.00
20291;DHT22;10304;51.074;13.754;2023-05-18T00:37:38;12.90;1.00
20291;DHT22;10304;51.074;13.754;2023-05-18T00:40:05;12.80;1.00
20291;DHT22;10304;51.074;13.754;2023-05-18T00:42:32;12.80;1.00
20291;DHT22;10304;51.074;13.754;2023-05-18T00:44:59;12.80;1.00
20291;DHT22;10304;51.074;13.754;2023-05-18T00:47:26;12.80;1.00
20291;DHT22;10304;51.074;13.754;2023-05-18T00:49:53;12.80;1.00
20291;DHT22;10304;51.074;13.754;2023-05-18T00:52:19;12.70;1.00
20291;DHT22;10304;51.074;13.754;2023-05-18T00:54:48;12.70;1.00
20291;DHT22;10304;51.074;13.754;2023-05-18T00:57:14;12.60;1.00
20291;DHT22;10304;51.074;13.754;2023-05-18T00:59:42;12.50;1.00
20291;DHT22;10304;51.074;13.754;2023-05-18T01:02:09;12.50;1.00
20291;DHT22;10304;51.074;13.754;2023-05-18T01:04:37;12.50;1.00
20291;DHT22;10304;51.074;13.754;2023-05-18T01:07:07;12.40;1.00
20291;DHT22;10304;51.074;13.754;2023-05-18T01:09:34;12.30;1.00
20291;DHT22;10304;51.074;13.754;2023-05-18T01:14:47;12.20;1.00
20291;DHT22;10304;51.074;13.754;2023-05-18T01:17:38;12.20;1.00
20291;DHT22;10304;51.074;13.754;2023-05-18T01:25:49;12.00;1.00
20291;DHT22;10304;51.074;13.754;2023-05-18T01:28:22;12.00;1.00
20291;DHT22;10304;51.074;13.754;2023-05-18T01:30:52;11.90;1.00
20291;DHT22;10304;51.074;13.754;2023-05-18T01:33:19;11.90;1.00
20291;DHT22;10304;51.074;13.754;2023-05-18T01:35:46;11.90;1.00
20291;DHT22;10304;51.074;13.754;2023-05-18T01:38:19;11.90;1.00
20291;DHT22;10304;51.074;13.754;2023-05-18T01:41:02;11.90;1.00
20291;DHT22;10304;51.074;13.754;2023-05-18T01:43:34;11.90;1.00
20291;DHT22;10304;51.074;13.754;2023-05-18T01:46:07;11.90;1.00
20291;DHT22;10304;51.074;13.754;2023-05-18T01:48:38;11.80;1.00
20291;DHT22;10304;51.074;13.754;2023-05-18T01:51:05;11.80;1.00
20291;DHT22;10304;51.074;13.754;2023-05-18T01:53:42;11.70;1.00
20291;DHT22;10304;51.074;13.754;2023-05-18T01:56:11;11.70;1.00
20291;DHT22;10304;51.074;13.754;2023-05-18T01:58:39;11.70;1.00
20291;DHT22;10304;51.074;13.754;2023-05-18T02:01:06;11.60;1.00
20291;DHT22;10304;51.074;13.754;2023-05-18T02:03:33;11.50;1.00
20291;DHT22;10304;51.074;13.754;2023-05-18T02:06:00;11.50;1.00
20291;DHT22;10304;51.074;13.754;2023-05-18T02:08:27;11.50;1.00
20291;DHT22;10304;51.074;13.754;2023-05-18T02:10:54;11.40;1.00
20291;DHT22;10304;51.074;13.754;2023-05-18T02:13:20;11.40;1.00
20291;DHT22;10304;51.074;13.754;2023-05-18T02:15:47;11.40;1.00
20291;DHT22;10304;51.074;13.754;2023-05-18T02:18:14;11.30;1.00
20291;DHT22;10304;51.074;13.754;2023-05-18T02:20:42;11.30;1.00
20291;DHT22;10304;51.074;13.754;2023-05-18T02:23:08;11.30;1.00
20291;DHT22;10304;51.074;13.754;2023-05-18T02:25:35;11.30;1.00
20291;DHT22;10304;51.074;13.754;2023-05-18T02:28:02;11.30;1.00
20291;DHT22;10304;51.074;13.754;2023-05-18T02:30:29;11.30;1.00
20291;DHT22;10304;51.074;13.754;2023-05-18T02:32:58;11.20;1.00
20291;DHT22;10304;51.074;13.754;2023-05-18T02:35:25;11.20;1.00
20291;DHT22;10304;51.074;13.754;2023-05-18T02:37:52;11.20;1.00
20291;DHT22;10304;51.074;13.754;2023-05-18T02:40:19;11.20;1.00
20291;DHT22;10304;51.074;13.754;2023-05-18T02:42:46;11.10;1.00
20291;DHT22;10304;51.074;13.754;2023-05-18T02:45:12;11.10;1.00
20291;DHT22;10304;51.074;13.754;2023-05-18T02:47:39;11.00;1.00
20291;DHT22;10304;51.074;13.754;2023-05-18T02:50:06;10.90;1.00
20291;DHT22;10304;51.074;13.754;2023-05-18T02:52:33;10.90;1.00
20291;DHT22;10304;51.074;13.754;2023-05-18T02:55:00;10.90;1.00
20291;DHT22;10304;51.074;13.754;2023-05-18T02:57:27;10.90;9.80
20291;DHT22;10304;51.074;13.754;2023-05-18T02:59:53;10.80;28.00
20291;DHT22;10304;51.074;13.754;2023-05-18T03:02:20;10.80;37.40
20291;DHT22;10304;51.074;13.754;2023-05-18T03:04:49;10.80;57.20
20291;DHT22;10304;51.074;13.754;2023-05-18T03:07:23;10.80;60.30
20291;DHT22;10304;51.074;13.754;2023-05-18T03:09:50;10.80;56.20
20291;DHT22;10304;51.074;13.754;2023-05-18T03:12:16;10.80;79.50
20291;DHT22;10304;51.074;13.754;2023-05-18T03:14:43;10.80;66.50
20291;DHT22;10304;51.074;13.754;2023-05-18T03:17:10;10.80;72.30
20291;DHT22;10304;51.074;13.754;2023-05-18T03:19:36;10.70;64.60
20291;DHT22;10304;51.074;13.754;2023-05-18T03:22:03;10.70;67.60
20291;DHT22;10304;51.074;13.754;2023-05-18T03:24:31;10.70;79.70
20291;DHT22;10304;51.074;13.754;2023-05-18T03:27:06;10.80;94.70
20291;DHT22;10304;51.074;13.754;2023-05-18T03:29:33;10.70;97.90
20291;DHT22;10304;51.074;13.754;2023-05-18T03:32:00;10.70;97.00
20291;DHT22;10304;51.074;13.754;2023-05-18T03:34:26;10.60;99.90
20291;DHT22;10304;51.074;13.754;2023-05-18T03:36:53;10.60;99.90
20291;DHT22;10304;51.074;13.754;2023-05-18T03:39:20;10.60;99.90
20291;DHT22;10304;51.074;13.754;2023-05-18T03:41:47;10.70;99.90
20291;DHT22;10304;51.074;13.754;2023-05-18T03:44:14;10.60;99.90
20291;DHT22;10304;51.074;13.754;2023-05-18T03:46:41;10.60;99.90
20291;DHT22;10304;51.074;13.754;2023-05-18T03:49:08;10.60;99.90
20291;DHT22;10304;51.074;13.754;2023-05-18T03:51:35;10.60;99.90
20291;DHT22;10304;51.074;13.754;2023-05-18T03:54:01;10.60;99.90
20291;DHT22;10304;51.074;13.754;2023-05-18T03:56:28;10.60;99.90
20291;DHT22;10304;51.074;13.754;2023-05-18T03:58:56;10.50;99.90
20291;DHT22;10304;51.074;13.754;2023-05-18T04:01:24;10.60;99.90
20291;DHT22;10304;51.074;13.754;2023-05-18T04:03:50;10.60;99.90
20291;DHT22;10304;51.074;13.754;2023-05-18T04:06:22;10.60;99.90
20291;DHT22;10304;51.074;13.754;2023-05-18T04:08:49;10.60;99.90
20291;DHT22;10304;51.074;13.754;2023-05-18T04:11:15;10.60;99.90
20291;DHT22;10304;51.074;13.754;2023-05-18T04:13:42;10.50;94.60
20291;DHT22;10304;51.074;13.754;2023-05-18T04:16:09;10.60;91.90
20291;DHT22;10304;51.074;13.754;2023-05-18T04:18:40;10.60;91.60
20291;DHT22;10304;51.074;13.754;2023-05-18T04:21:07;10.60;93.10
20291;DHT22;10304;51.074;13.754;2023-05-18T04:23:34;10.60;91.60
20291;DHT22;10304;51.074;13.754;2023-05-18T04:26:05;10.60;99.90
20291;DHT22;10304;51.074;13.754;2023-05-18T04:28:32;10.60;98.40
20291;DHT22;10304;51.074;13.754;2023-05-18T04:30:59;10.60;96.60
20291;DHT22;10304;51.074;13.754;2023-05-18T04:33:28;10.70;99.80
20291;DHT22;10304;51.074;13.754;2023-05-18T04:35:55;10.80;99.90
20291;DHT22;10304;51.074;13.754;2023-05-18T04:38:24;10.80;99.90
20291;DHT22;10304;51.074;13.754;2023-05-18T04:40:51;10.80;91.90
20291;DHT22;10304;51.074;13.754;2023-05-18T04:43:20;10.90;80.10
20291;DHT22;10304;51.074;13.754;2023-05-18T04:45:46;10.90;48.00
20291;DHT22;10304;51.074;13.754;2023-05-18T04:48:16;10.90;52.10
20291;DHT22;10304;51.074;13.754;2023-05-18T04:50:45;10.90;58.30
20291;DHT22;10304;51.074;13.754;2023-05-18T04:53:12;11.00;46.60
20291;DHT22;10304;51.074;13.754;2023-05-18T04:55:39;11.00;32.80
20291;DHT22;10304;51.074;13.754;2023-05-18T04:58:08;11.00;35.20
20291;DHT22;10304;51.074;13.754;2023-05-18T05:00:35;11.00;25.80
20291;DHT22;10304;51.074;13.754;2023-05-18T05:03:03;11.00;16.80
20291;DHT22;10304;51.074;13.754;2023-05-18T05:05:30;11.10;18.40
20291;DHT22;10304;51.074;13.754;2023-05-18T05:07:57;11.10;21.80
20291;DHT22;10304;51.074;13.754;2023-05-18T05:10:24;11.10;27.80
20291;DHT22;10304;51.074;13.754;2023-05-18T05:12:51;11.20;35.20
20291;DHT22;10304;51.074;13.754;2023-05-18T05:15:18;11.20;33.70
20291;DHT22;10304;51.074;13.754;2023-05-18T05:17:46;11.20;27.60
20291;DHT22;10304;51.074;13.754;2023-05-18T05:20:12;11.20;35.00
20291;DHT22;10304;51.074;13.754;2023-05-18T05:22:39;11.30;28.70
20291;DHT22;10304;51.074;13.754;2023-05-18T05:25:06;11.30;26.10
20291;DHT22;10304;51.074;13.754;2023-05-18T05:27:33;11.40;26.30
20291;DHT22;10304;51.074;13.754;2023-05-18T05:30:00;11.40;19.90
20291;DHT22;10304;51.074;13.754;2023-05-18T05:32:27;11.50;16.10
20291;DHT22;10304;51.074;13.754;2023-05-18T05:34:54;11.50;8.50
20291;DHT22;10304;51.074;13.754;2023-05-18T05:37:20;11.50;16.60
20291;DHT22;10304;51.074;13.754;2023-05-18T05:39:47;11.60;5.60
20291;DHT22;10304;51.074;13.754;2023-05-18T05:42:15;11.60;1.00
20291;DHT22;10304;51.074;13.754;2023-05-18T05:44:41;11.70;1.00
20291;DHT22;10304;51.074;13.754;2023-05-18T05:47:08;11.80;1.00
20291;DHT22;10304;51.074;13.754;2023-05-18T05:49:35;11.80;1.00
20291;DHT22;10304;51.074;13.754;2023-05-18T05:52:02;11.90;1.00
20291;DHT22;10304;51.074;13.754;2023-05-18T05:54:29;11.90;1.00
20291;DHT22;10304;51.074;13.754;2023-05-18T05:56:55;12.00;1.00
20291;DHT22;10304;51.074;13.754;2023-05-18T05:59:22;12.10;1.00
20291;DHT22;10304;51.074;13.754;2023-05-18T06:01:49;12.10;1.00
20291;DHT22;10304;51.074;13.754;2023-05-18T06:04:16;12.20;1.00
20291;DHT22;10304;51.074;13.754;2023-05-18T06:06:43;12.30;1.00
20291;DHT22;10304;51.074;13.754;2023-05-18T06:09:09;12.30;1.00
20291;DHT22;10304;51.074;13.754;2023-05-18T06:11:36;12.40;1.00
20291;DHT22;10304;51.074;13.754;2023-05-18T06:14:03;12.50;1.00
20291;DHT22;10304;51.074;13.754;2023-05-18T06:16:30;12.50;1.00
20291;DHT22;10304;51.074;13.754;2023-05-18T06:18:57;12.70;1.00
20291;DHT22;10304;51.074;13.754;2023-05-18T06:21:24;12.70;1.00
20291;DHT22;10304;51.074;13.754;2023-05-18T06:23:51;12.80;1.00
20291;DHT22;10304;51.074;13.754;2023-05-18T06:26:17;12.90;1.00
20291;DHT22;10304;51.074;13.754;2023-05-18T06:28:44;13.00;1.00
20291;DHT22;10304;51.074;13.754;2023-05-18T06:31:11;13.10;1.00
20291;DHT22;10304;51.074;13.754;2023-05-18T06:33:38;13.20;1.00
20291;DHT22;10304;51.074;13.754;2023-05-18T06:36:05;13.20;1.00
20291;DHT22;10304;51.074;13.754;2023-05-18T06:38:32;13.30;1.00
20291;DHT22;10304;51.074;13.754;2023-05-18T06:40:59;13.40;1.00
20291;DHT22;10304;51.074;13.754;2023-05-18T06:43:26;13.50;1.00
20291;DHT22;10304;51.074;13.754;2023-05-18T06:45:54;13.60;1.00
20291;DHT22;10304;51.074;13.754;2023-05-18T06:48:24;13.70;1.00
20291;DHT22;10304;51.074;13.754;2023-05-18T06:50:51;13.80;1.00
20291;DHT22;10304;51.074;13.754;2023-05-18T06:53:18;13.90;1.00
20291;DHT22;10304;51.074;13.754;2023-05-18T06:55:45;14.00;1.00
20291;DHT22;10304;51.074;13.754;2023-05-18T06:58:12;14.10;1.00
20291;DHT22;10304;51.074;13.754;2023-05-18T07:00:39;14.10;1.00
20291;DHT22;10304;51.074;13.754;2023-05-18T07:03:05;14.20;1.00
20291;DHT22;10304;51.074;13.754;2023-05-18T07:05:34;14.30;1.00
20291;DHT22;10304;51.074;13.754;2023-05-18T07:08:05;14.40;1.00
20291;DHT22;10304;51.074;13.754;2023-05-18T07:10:32;14.50;1.00
20291;DHT22;10304;51.074;13.754;2023-05-18T07:13:00;14.60;1.00
20291;DHT22;10304;51.074;13.754;2023-05-18T07:15:27;14.70;1.00
20291;DHT22;10304;51.074;13.754;2023-05-18T07:17:55;14.80;1.00
20291;DHT22;10304;51.074;13.754;2023-05-18T07:20:22;14.90;1.00
20291;DHT22;10304;51.074;13.754;2023-05-18T07:22:51;15.00;1.00
20291;DHT22;10304;51.074;13.754;2023-05-18T07:25:21;15.10;1.00
20291;DHT22;10304;51.074;13.754;2023-05-18T07:27:48;15.10;1.00
20291;DHT22;10304;51.074;13.754;2023-05-18T07:30:17;15.30;1.00
20291;DHT22;10304;51.074;13.754;2023-05-18T07:32:44;15.30;1.00
20291;DHT22;10304;51.074;13.754;2023-05-18T07:35:11;15.40;1.00
20291;DHT22;10304;51.074;13.754;2023-05-18T07:37:38;15.40;1.00
20291;DHT22;10304;51.074;13.754;2023-05-18T07:40:06;15.50;1.00
20291;DHT22;10304;51.074;13.754;2023-05-18T07:42:38;15.60;1.00
20291;DHT22;10304;51.074;13.754;2023-05-18T07:45:06;15.80;1.00
20291;DHT22;10304;51.074;13.754;2023-05-18T07:47:33;15.90;1.00
20291;DHT22;10304;51.074;13.754;2023-05-18T07:50:00;16.00;1.00
20291;DHT22;10304;51.074;13.754;2023-05-18T07:52:27;16.10;1.00
20291;DHT22;10304;51.074;13.754;2023-05-18T07:54:55;16.20;1.00
20291;DHT22;10304;51.074;13.754;2023-05-18T07:57:24;16.30;1.00
20291;DHT22;10304;51.074;13.754;2023-05-18T07:59:51;16.40;1.00
20291;DHT22;10304;51.074;13.754;2023-05-18T08:02:18;16.40;1.00
20291;DHT22;10304;51.074;13.754;2023-05-18T08:04:48;16.50;1.00
20291;DHT22;10304;51.074;13.754;2023-05-18T08:07:16;16.60;1.00
20291;DHT22;10304;51.074;13.754;2023-05-18T08:09:43;16.70;1.00
20291;DHT22;10304;51.074;13.754;2023-05-18T08:12:10;16.80;1.00
20291;DHT22;10304;51.074;13.754;2023-05-18T08:14:37;16.90;1.00
20291;DHT22;10304;51.074;13.754;2023-05-18T08:17:04;17.00;1.00
20291;DHT22;10304;51.074;13.754;2023-05-18T08:19:32;17.20;1.00
20291;DHT22;10304;51.074;13.754;2023-05-18T08:21:58;17.30;1.00
20291;DHT22;10304;51.074;13.754;2023-05-18T08:24:26;17.50;1.00
20291;DHT22;10304;51.074;13.754;2023-05-18T08:26:52;17.60;1.00
20291;DHT22;10304;51.074;13.754;2023-05-18T08:29:19;17.70;1.00
20291;DHT22;10304;51.074;13.754;2023-05-18T08:31:46;17.90;1.00
20291;DHT22;10304;51.074;13.754;2023-05-18T08:34:15;18.00;1.00
20291;DHT22;10304;51.074;13.754;2023-05-18T08:36:42;18.20;1.00
20291;DHT22;10304;51.074;13.754;2023-05-18T08:39:11;18.40;1.00
20291;DHT22;10304;51.074;13.754;2023-05-18T08:44:18;18.60;1.00
20291;DHT22;10304;51.074;13.754;2023-05-18T08:46:48;18.70;1.00
20291;DHT22;10304;51.074;13.754;2023-05-18T08:49:17;18.80;1.00
20291;DHT22;10304;51.074;13.754;2023-05-18T08:51:46;18.80;1.00
20291;DHT22;10304;51.074;13.754;2023-05-18T08:54:19;18.90;1.00
20291;DHT22;10304;51.074;13.754;2023-05-18T08:56:47;19.00;1.00
20291;DHT22;10304;51.074;13.754;2023-05-18T08:59:17;19.00;1.00
20291;DHT22;10304;51.074;13.754;2023-05-18T09:01:45;19.10;1.00
20291;DHT22;10304;51.074;13.754;2023-05-18T09:04:13;19.20;1.00
20291;DHT22;10304;51.074;13.754;2023-05-18T09:06:40;19.30;1.00
20291;DHT22;10304;51.074;13.754;2023-05-18T09:09:08;19.50;1.00
20291;DHT22;10304;51.074;13.754;2023-05-18T09:11:37;19.50;1.00
20291;DHT22;10304;51.074;13.754;2023-05-18T09:14:04;19.80;1.00
20291;DHT22;10304;51.074;13.754;2023-05-18T09:16:32;19.90;1.00
20291;DHT22;10304;51.074;13.754;2023-05-18T09:18:59;20.10;1.00
20291;DHT22;10304;51.074;13.754;2023-05-18T09:21:27;20.20;1.00
20291;DHT22;10304;51.074;13.754;2023-05-18T09:23:55;20.40;1.00
20291;DHT22;10304;51.074;13.754;2023-05-18T09:26:22;20.70;1.00
20291;DHT22;10304;51.074;13.754;2023-05-18T09:28:51;20.80;1.00
20291;DHT22;10304;51.074;13.754;2023-05-18T09:31:20;20.90;1.00
20291;DHT22;10304;51.074;13.754;2023-05-18T09:33:50;21.00;1.00
20291;DHT22;10304;51.074;13.754;2023-05-18T09:36:23;21.00;1.00
20291;DHT22;10304;51.074;13.754;2023-05-18T09:38:52;21.10;1.00
20291;DHT22;10304;51.074;13.754;2023-05-18T09:41:19;21.30;1.00
20291;DHT22;10304;51.074;13.754;2023-05-18T09:43:49;21.40;1.00
20291;DHT22;10304;51.074;13.754;2023-05-18T09:46:19;21.50;1.00
20291;DHT22;10304;51.074;13.754;2023-05-18T09:48:49;21.60;1.00
20291;DHT22;10304;51.074;13.754;2023-05-18T09:51:17;21.80;1.00
20291;DHT22;10304;51.074;13.754;2023-05-18T09:54:03;21.80;1.00
20291;DHT22;10304;51.074;13.754;2023-05-18T09:56:34;21.90;1.00
20291;DHT22;10304;51.074;13.754;2023-05-18T09:59:14;22.10;1.00
20291;DHT22;10304;51.074;13.754;2023-05-18T10:02:01;22.20;1.00
20291;DHT22;10304;51.074;13.754;2023-05-18T10:04:49;22.30;1.00
20291;DHT22;10304;51.074;13.754;2023-05-18T10:07:16;22.40;1.00
20291;DHT22;10304;51.074;13.754;2023-05-18T10:09:44;22.40;1.00
20291;DHT22;10304;51.074;13.754;2023-05-18T10:12:17;22.30;1.00
20291;DHT22;10304;51.074;13.754;2023-05-18T10:14:48;22.30;1.00
20291;DHT22;10304;51.074;13.754;2023-05-18T10:17:15;22.40;1.00
20291;DHT22;10304;51.074;13.754;2023-05-18T10:19:43;22.40;1.00
20291;DHT22;10304;51.074;13.754;2023-05-18T10:22:16;22.30;1.00
20291;DHT22;10304;51.074;13.754;2023-05-18T10:24:49;22.30;1.00
20291;DHT22;10304;51.074;13.754;2023-05-18T10:27:16;22.30;1.00
20291;DHT22;10304;51.074;13.754;2023-05-18T10:29:46;22.40;1.00
20291;DHT22;10304;51.074;13.754;2023-05-18T10:32:13;22.40;1.00
20291;DHT22;10304;51.074;13.754;2023-05-18T10:34:43;22.50;1.00
20291;DHT22;10304;51.074;13.754;2023-05-18T10:37:12;22.60;1.00
20291;DHT22;10304;51.074;13.754;2023-05-18T10:39:40;22.80;1.00
20291;DHT22;10304;51.074;13.754;2023-05-18T10:42:12;22.90;1.00
20291;DHT22;10304;51.074;13.754;2023-05-18T10:44:42;22.90;1.00
20291;DHT22;10304;51.074;13.754;2023-05-18T10:47:10;23.00;1.00
20291;DHT22;10304;51.074;13.754;2023-05-18T10:49:39;23.00;1.00
20291;DHT22;10304;51.074;13.754;2023-05-18T10:52:10;23.10;1.00
20291;DHT22;10304;51.074;13.754;2023-05-18T10:54:39;23.10;1.00
20291;DHT22;10304;51.074;13.754;2023-05-18T10:57:10;23.10;1.00
20291;DHT22;10304;51.074;13.754;2023-05-18T10:59:41;23.10;1.00
20291;DHT22;10304;51.074;13.754;2023-05-18T11:02:13;23.20;1.00
20291;DHT22;10304;51.074;13.754;2023-05-18T11:04:45;23.20;1.00
20291;DHT22;10304;51.074;13.754;2023-05-18T11:07:13;23.20;1.00
20291;DHT22;10304;51.074;13.754;2023-05-18T11:09:42;23.20;1.00
20291;DHT22;10304;51.074;13.754;2023-05-18T11:12:13;23.30;1.00
20291;DHT22;10304;51.074;13.754;2023-05-18T11:14:49;23.20;1.00
20291;DHT22;10304;51.074;13.754;2023-05-18T11:17:18;23.30;1.00
20291;DHT22;10304;51.074;13.754;2023-05-18T11:22:51;23.30;1.00
20291;DHT22;10304;51.074;13.754;2023-05-18T11:25:37;23.20;1.00
20291;DHT22;10304;51.074;13.754;2023-05-18T11:28:08;23.20;1.00
20291;DHT22;10304;51.074;13.754;2023-05-18T11:33:17;23.20;1.00
20291;DHT22;10304;51.074;13.754;2023-05-18T11:36:03;23.30;1.00
20291;DHT22;10304;51.074;13.754;2023-05-18T11:39:05;23.40;1.00
20291;DHT22;10304;51.074;13.754;2023-05-18T11:41:39;23.40;1.00
20291;DHT22;10304;51.074;13.754;2023-05-18T11:46:54;23.50;1.00
20291;DHT22;10304;51.074;13.754;2023-05-18T11:49:24;23.70;1.00
20291;DHT22;10304;51.074;13.754;2023-05-18T11:52:01;23.70;1.00
20291;DHT22;10304;51.074;13.754;2023-05-18T11:54:33;23.80;1.00
20291;DHT22;10304;51.074;13.754;2023-05-18T11:57:01;23.80;1.00
20291;DHT22;10304;51.074;13.754;2023-05-18T11:59:33;23.90;1.00
20291;DHT22;10304;51.074;13.754;2023-05-18T12:02:01;24.00;1.00
20291;DHT22;10304;51.074;13.754;2023-05-18T12:04:29;24.10;1.00
20291;DHT22;10304;51.074;13.754;2023-05-18T12:06:59;24.30;1.00
20291;DHT22;10304;51.074;13.754;2023-05-18T12:09:29;24.30;1.00
20291;DHT22;10304;51.074;13.754;2023-05-18T12:12:00;24.30;1.00
20291;DHT22;10304;51.074;13.754;2023-05-18T12:14:28;24.30;1.00
20291;DHT22;10304;51.074;13.754;2023-05-18T12:16:56;24.30;1.00
20291;DHT22;10304;51.074;13.754;2023-05-18T12:19:24;24.40;1.00
20291;DHT22;10304;51.074;13.754;2023-05-18T12:21:52;24.50;1.00
20291;DHT22;10304;51.074;13.754;2023-05-18T12:24:20;24.50;1.00
20291;DHT22;10304;51.074;13.754;2023-05-18T12:26:47;24.70;1.00
20291;DHT22;10304;51.074;13.754;2023-05-18T12:29:14;24.90;1.00
20291;DHT22;10304;51.074;13.754;2023-05-18T12:31:46;25.00;1.00
20291;DHT22;10304;51.074;13.754;2023-05-18T12:34:14;25.00;1.00
20291;DHT22;10304;51.074;13.754;2023-05-18T12:36:50;24.90;1.00
20291;DHT22;10304;51.074;13.754;2023-05-18T12:39:18;24.80;1.00
20291;DHT22;10304;51.074;13.754;2023-05-18T12:41:46;24.70;1.00
20291;DHT22;10304;51.074;13.754;2023-05-18T12:44:13;24.70;1.00
20291;DHT22;10304;51.074;13.754;2023-05-18T12:46:41;24.70;1.00
20291;DHT22;10304;51.074;13.754;2023-05-18T12:49:09;24.70;1.00
20291;DHT22;10304;51.074;13.754;2023-05-18T12:51:38;24.90;1.00
20291;DHT22;10304;51.074;13.754;2023-05-18T12:54:06;25.10;1.00
20291;DHT22;10304;51.074;13.754;2023-05-18T12:56:52;25.10;1.00
20291;DHT22;10304;51.074;13.754;2023-05-18T12:59:28;25.20;1.00
20291;DHT22;10304;51.074;13.754;2023-05-18T13:01:55;25.30;1.00
20291;DHT22;10304;51.074;13.754;2023-05-18T13:04:32;25.60;1.00
20291;DHT22;10304;51.074;13.754;2023-05-18T13:07:00;26.00;1.00
20291;DHT22;10304;51.074;13.754;2023-05-18T13:09:27;26.30;1.00
20291;DHT22;10304;51.074;13.754;2023-05-18T13:11:58;26.80;1.00
20291;DHT22;10304;51.074;13.754;2023-05-18T13:14:37;27.10;1.00
20291;DHT22;10304;51.074;13.754;2023-05-18T13:17:04;27.20;1.00
20291;DHT22;10304;51.074;13.754;2023-05-18T13:19:33;27.40;1.00
20291;DHT22;10304;51.074;13.754;2023-05-18T13:22:00;27.60;1.00
20291;DHT22;10304;51.074;13.754;2023-05-18T13:24:28;27.80;1.00
20291;DHT22;10304;51.074;13.754;2023-05-18T13:26:55;28.00;1.00
20291;DHT22;10304;51.074;13.754;2023-05-18T13:29:22;28.00;1.00
20291;DHT22;10304;51.074;13.754;2023-05-18T13:31:48;28.00;1.00
20291;DHT22;10304;51.074;13.754;2023-05-18T13:34:15;28.20;1.00
20291;DHT22;10304;51.074;13.754;2023-05-18T13:36:43;28.50;1.00
20291;DHT22;10304;51.074;13.754;2023-05-18T13:39:10;28.80;1.00
20291;DHT22;10304;51.074;13.754;2023-05-18T13:41:37;29.00;1.00
20291;DHT22;10304;51.074;13.754;2023-05-18T13:44:04;28.90;1.00
20291;DHT22;10304;51.074;13.754;2023-05-18T13:46:31;28.80;1.00
20291;DHT22;10304;51.074;13.754;2023-05-18T13:48:58;28.70;1.00
20291;DHT22;10304;51.074;13.754;2023-05-18T13:51:25;28.60;1.00
20291;DHT22;10304;51.074;13.754;2023-05-18T13:53:52;28.40;1.00
20291;DHT22;10304;51.074;13.754;2023-05-18T13:56:19;28.20;1.00
20291;DHT22;10304;51.074;13.754;2023-05-18T13:58:47;28.00;1.00
20291;DHT22;10304;51.074;13.754;2023-05-18T14:01:16;27.80;1.00
20291;DHT22;10304;51.074;13.754;2023-05-18T14:03:43;27.90;1.00
20291;DHT22;10304;51.074;13.754;2023-05-18T14:06:10;28.10;1.00
20291;DHT22;10304;51.074;13.754;2023-05-18T14:08:37;27.90;1.00
20291;DHT22;10304;51.074;13.754;2023-05-18T14:11:04;27.70;1.00
20291;DHT22;10304;51.074;13.754;2023-05-18T14:13:31;27.50;1.00
20291;DHT22;10304;51.074;13.754;2023-05-18T14:15:58;27.40;1.00
20291;DHT22;10304;51.074;13.754;2023-05-18T14:18:26;27.30;1.00
20291;DHT22;10304;51.074;13.754;2023-05-18T14:20:53;27.30;1.00
20291;DHT22;10304;51.074;13.754;2023-05-18T14:23:19;27.40;1.00
20291;DHT22;10304;51.074;13.754;2023-05-18T14:25:46;27.50;1.00
20291;DHT22;10304;51.074;13.754;2023-05-18T14:28:14;27.50;1.00
20291;DHT22;10304;51.074;13.754;2023-05-18T14:30:41;27.60;1.00
20291;DHT22;10304;51.074;13.754;2023-05-18T14:33:09;27.60;1.00
20291;DHT22;10304;51.074;13.754;2023-05-18T14:35:36;27.60;1.00
20291;DHT22;10304;51.074;13.754;2023-05-18T14:38:03;27.60;1.00
20291;DHT22;10304;51.074;13.754;2023-05-18T14:40:31;27.50;1.00
20291;DHT22;10304;51.074;13.754;2023-05-18T14:42:58;27.40;1.00
20291;DHT22;10304;51.074;13.754;2023-05-18T14:45:25;27.20;1.00
20291;DHT22;10304;51.074;13.754;2023-05-18T14:47:52;27.00;1.00
20291;DHT22;10304;51.074;13.754;2023-05-18T14:50:19;26.70;1.00
20291;DHT22;10304;51.074;13.754;2023-05-18T14:52:46;26.60;1.00
20291;DHT22;10304;51.074;13.754;2023-05-18T14:55:13;26.50;1.00
20291;DHT22;10304;51.074;13.754;2023-05-18T14:57:41;26.50;1.00
20291;DHT22;10304;51.074;13.754;2023-05-18T15:00:08;26.60;1.00
20291;DHT22;10304;51.074;13.754;2023-05-18T15:02:36;26.80;1.00
20291;DHT22;10304;51.074;13.754;2023-05-18T15:05:04;27.10;1.00
20291;DHT22;10304;51.074;13.754;2023-05-18T15:07:31;27.20;1.00
20291;DHT22;10304;51.074;13.754;2023-05-18T15:09:58;27.30;1.00
20291;DHT22;10304;51.074;13.754;2023-05-18T15:12:25;27.60;1.00
20291;DHT22;10304;51.074;13.754;2023-05-18T15:14:52;27.70;1.00
20291;DHT22;10304;51.074;13.754;2023-05-18T15:17:19;27.70;1.00
20291;DHT22;10304;51.074;13.754;2023-05-18T15:19:46;27.60;1.00
20291;DHT22;10304;51.074;13.754;2023-05-18T15:22:13;27.50;1.00
20291;DHT22;10304;51.074;13.754;2023-05-18T15:24:40;27.40;1.00
20291;DHT22;10304;51.074;13.754;2023-05-18T15:27:07;27.20;1.00
20291;DHT22;10304;51.074;13.754;2023-05-18T15:29:34;27.00;1.00
20291;DHT22;10304;51.074;13.754;2023-05-18T15:32:01;26.80;1.00
20291;DHT22;10304;51.074;13.754;2023-05-18T15:34:29;26.60;1.00
20291;DHT22;10304;51.074;13.754;2023-05-18T15:36:58;26.30;1.00
20291;DHT22;10304;51.074;13.754;2023-05-18T15:39:27;26.00;1.00
20291;DHT22;10304;51.074;13.754;2023-05-18T15:41:54;25.70;1.00
20291;DHT22;10304;51.074;13.754;2023-05-18T15:44:22;25.50;1.00
20291;DHT22;10304;51.074;13.754;2023-05-18T15:46:49;25.30;1.00
20291;DHT22;10304;51.074;13.754;2023-05-18T15:49:16;25.10;1.00
20291;DHT22;10304;51.074;13.754;2023-05-18T15:51:44;24.90;1.00
20291;DHT22;10304;51.074;13.754;2023-05-18T15:54:14;24.70;1.00